createdAt,value
2019-01-03T00:18:21.219Z,1026.91
2019-01-03T00:19:21.217Z,1026.94
2019-01-03T00:28:21.110Z,1027.00
2019-01-03T00:32:21.067Z,1027.02
2019-01-03T00:45:20.954Z,1027.14
2019-01-03T00:47:20.899Z,1027.20
2019-01-03T00:48:20.891Z,1027.27
2019-01-03T00:50:20.867Z,1027.23
2019-01-03T00:56:20.809Z,1027.31
2019-01-03T00:57:20.791Z,1027.31
2019-01-03T01:04:20.713Z,1027.42
2019-01-03T01:05:20.702Z,1027.42
2019-01-03T01:07:20.679Z,1027.43
2019-01-03T01:20:20.533Z,1027.46
2019-01-03T01:25:20.488Z,1027.31
2019-01-03T01:33:20.400Z,1027.32
2019-01-03T01:35:20.369Z,1027.28
2019-01-03T01:45:20.258Z,1027.25
2019-01-03T01:58:20.120Z,1027.35
2019-01-03T02:07:20.016Z,1027.42
2019-01-03T02:09:20.001Z,1027.47
2019-01-03T02:18:19.895Z,1027.34
2019-01-03T02:19:19.885Z,1027.39
2019-01-03T02:29:19.775Z,1027.36
2019-01-03T02:35:19.709Z,1027.33
2019-01-03T02:42:19.636Z,1027.29
2019-01-03T02:52:19.521Z,1027.23
2019-01-03T03:09:19.335Z,1027.26
2019-01-03T03:16:19.256Z,1027.22
2019-01-03T03:17:19.250Z,1027.22
2019-01-03T03:18:19.235Z,1027.17
2019-01-03T03:23:19.180Z,1027.12
2019-01-03T03:33:19.090Z,1027.04
2019-01-03T03:39:19.048Z,1026.95
2019-01-03T03:42:18.976Z,1026.98
2019-01-03T03:44:18.960Z,1026.93
2019-01-03T03:47:18.929Z,1026.88
2019-01-03T03:50:18.885Z,1026.94
2019-01-03T03:53:18.851Z,1026.87
2019-01-03T03:59:18.788Z,1026.82
2019-01-03T04:13:18.630Z,1026.71
2019-01-03T04:21:18.545Z,1026.70
2019-01-03T04:50:18.226Z,1026.51
2019-01-03T05:10:18.017Z,1026.51
2019-01-03T05:11:17.989Z,1026.52
2019-01-03T05:16:17.934Z,1026.65
2019-01-03T05:20:17.901Z,1026.58
2019-01-03T05:26:17.834Z,1026.56
2019-01-03T05:36:17.721Z,1026.60
2019-01-03T05:47:17.600Z,1026.52
2019-01-03T05:48:17.589Z,1026.51
2019-01-03T05:50:17.563Z,1026.48
2019-01-03T05:53:17.534Z,1026.41
2019-01-03T05:55:17.512Z,1026.42
2019-01-03T05:56:17.497Z,1026.47
2019-01-03T05:57:17.487Z,1026.45
2019-01-03T05:58:17.474Z,1026.42
2019-01-03T06:00:17.454Z,1026.43
2019-01-03T06:01:17.442Z,1026.40
2019-01-03T06:02:17.435Z,1026.45
2019-01-03T06:04:17.413Z,1026.39
2019-01-03T06:05:17.399Z,1026.42
2019-01-03T06:09:17.357Z,1026.55
2019-01-03T06:13:17.310Z,1026.56
2019-01-03T06:17:17.264Z,1026.50
2019-01-03T06:18:17.254Z,1026.49
2019-01-03T06:19:17.246Z,1026.52
2019-01-03T06:20:17.235Z,1026.40
2019-01-03T06:21:17.221Z,1026.46
2019-01-03T06:24:17.195Z,1026.54
2019-01-03T06:25:17.193Z,1026.51
2019-01-03T06:26:17.166Z,1026.51
2019-01-03T06:27:17.154Z,1026.45
2019-01-03T06:28:17.147Z,1026.49
2019-01-03T06:29:17.134Z,1026.53
2019-01-03T06:30:17.150Z,1026.54
2019-01-03T06:32:17.099Z,1026.46
2019-01-03T06:34:17.082Z,1026.54
2019-01-03T06:35:17.071Z,1026.51
2019-01-03T06:36:17.057Z,1026.51
2019-01-03T06:37:17.046Z,1026.54
2019-01-03T06:38:17.033Z,1026.57
2019-01-03T06:39:17.027Z,1026.51
2019-01-03T06:40:17.016Z,1026.60
2019-01-03T06:41:17.001Z,1026.61
2019-01-03T06:42:16.990Z,1026.61
2019-01-03T06:43:16.978Z,1026.54
2019-01-03T06:44:16.984Z,1026.62
2019-01-03T06:45:16.956Z,1026.60
2019-01-03T06:46:16.945Z,1026.58
2019-01-03T06:47:16.933Z,1026.56
2019-01-03T06:48:20.034Z,1026.54
2019-01-03T06:49:16.917Z,1026.48
2019-01-03T06:50:16.900Z,1026.55
2019-01-03T06:51:16.889Z,1026.56
2019-01-03T06:52:16.883Z,1026.57
2019-01-03T06:53:16.870Z,1026.55
2019-01-03T06:54:16.859Z,1026.56
2019-01-03T06:55:16.847Z,1026.60
2019-01-03T06:56:16.838Z,1026.54
2019-01-03T06:57:16.821Z,1026.57
2019-01-03T06:58:16.812Z,1026.66
2019-01-03T06:59:16.804Z,1026.60
2019-01-03T07:00:16.790Z,1026.61
2019-01-03T07:01:16.778Z,1026.58
2019-01-03T07:02:16.769Z,1026.60
2019-01-03T07:03:16.760Z,1026.61
2019-01-03T07:04:16.745Z,1026.61
2019-01-03T07:05:16.737Z,1026.62
2019-01-03T07:06:16.727Z,1026.69
2019-01-03T07:07:16.724Z,1026.67
2019-01-03T07:08:16.701Z,1026.73
2019-01-03T07:09:16.692Z,1026.75
2019-01-03T07:10:16.679Z,1026.74
2019-01-03T07:11:21.991Z,1026.70
2019-01-03T07:12:16.657Z,1026.75
2019-01-03T07:13:16.649Z,1026.86
2019-01-03T07:14:16.635Z,1026.80
2019-01-03T07:15:16.623Z,1026.71
2019-01-03T07:16:16.613Z,1026.73
2019-01-03T07:17:16.601Z,1026.77
2019-01-03T07:18:16.596Z,1026.74
2019-01-03T07:19:16.583Z,1026.72
2019-01-03T07:20:16.567Z,1026.74
2019-01-03T07:21:16.563Z,1026.81
2019-01-03T07:22:16.552Z,1026.80
2019-01-03T07:23:16.537Z,1026.86
2019-01-03T07:24:16.545Z,1026.88
2019-01-03T07:25:16.512Z,1026.81
2019-01-03T07:26:16.501Z,1026.86
2019-01-03T07:27:16.495Z,1026.90
2019-01-03T07:28:16.526Z,1026.87
2019-01-03T07:29:16.521Z,1026.88
2019-01-03T07:30:16.460Z,1026.98
2019-01-03T07:31:16.445Z,1026.88
2019-01-03T07:32:16.443Z,1026.94
2019-01-03T07:33:16.428Z,1027.03
2019-01-03T07:34:16.412Z,1027.05
2019-01-03T07:35:16.398Z,1026.98
2019-01-03T07:36:16.389Z,1027.13
2019-01-03T07:37:16.379Z,1027.09
2019-01-03T07:38:16.369Z,1027.14
2019-01-03T07:39:16.356Z,1027.18
2019-01-03T07:40:16.345Z,1027.23
2019-01-03T07:41:16.334Z,1027.29
2019-01-03T07:42:16.324Z,1027.26
2019-01-03T07:43:16.313Z,1027.26
2019-01-03T07:44:16.303Z,1027.26
2019-01-03T07:45:16.289Z,1027.26
2019-01-03T07:46:16.286Z,1027.31
2019-01-03T07:47:16.271Z,1027.26
2019-01-03T07:48:16.257Z,1027.29
2019-01-03T07:49:16.245Z,1027.21
2019-01-03T07:50:16.232Z,1027.38
2019-01-03T07:51:16.225Z,1027.32
2019-01-03T07:52:16.210Z,1027.41
2019-01-03T07:53:16.199Z,1027.39
2019-01-03T07:54:16.188Z,1027.38
2019-01-03T07:55:16.183Z,1027.40
2019-01-03T07:56:16.166Z,1027.39
2019-01-03T07:57:16.173Z,1027.38
2019-01-03T07:58:16.143Z,1027.40
2019-01-03T07:59:16.133Z,1027.41
2019-01-03T08:00:16.123Z,1027.40
2019-01-03T08:01:16.109Z,1027.38
2019-01-03T08:02:16.102Z,1027.40
2019-01-03T08:03:16.087Z,1027.34
2019-01-03T08:04:16.078Z,1027.32
2019-01-03T08:05:16.065Z,1027.41
2019-01-03T08:06:16.054Z,1027.31
2019-01-03T08:07:16.043Z,1027.25
2019-01-03T08:08:16.037Z,1027.30
2019-01-03T08:09:16.021Z,1027.33
2019-01-03T08:10:16.015Z,1027.39
2019-01-03T08:11:15.997Z,1027.30
2019-01-03T08:12:15.987Z,1027.35
2019-01-03T08:13:15.976Z,1027.43
2019-01-03T08:14:15.965Z,1027.39
2019-01-03T08:15:15.957Z,1027.49
2019-01-03T08:16:15.944Z,1027.40
2019-01-03T08:17:15.933Z,1027.42
2019-01-03T08:18:15.921Z,1027.36
2019-01-03T08:19:15.962Z,1027.34
2019-01-03T08:20:15.898Z,1027.45
2019-01-03T08:21:15.892Z,1027.45
2019-01-03T08:22:15.887Z,1027.37
2019-01-03T08:23:15.866Z,1027.32
2019-01-03T08:24:15.859Z,1027.36
2019-01-03T08:25:15.846Z,1027.47
2019-01-03T08:26:15.836Z,1027.48
2019-01-03T08:27:15.820Z,1027.48
2019-01-03T08:28:15.811Z,1027.48
2019-01-03T08:29:15.798Z,1027.49
2019-01-03T08:30:15.787Z,1027.51
2019-01-03T08:31:15.774Z,1027.48
2019-01-03T08:32:15.766Z,1027.49
2019-01-03T08:33:15.753Z,1027.48
2019-01-03T08:34:15.743Z,1027.52
2019-01-03T08:35:15.734Z,1027.49
2019-01-03T08:36:15.720Z,1027.63
2019-01-03T08:37:15.715Z,1027.67
2019-01-03T08:38:15.707Z,1027.62
2019-01-03T08:39:15.689Z,1027.62
2019-01-03T08:40:15.688Z,1027.55
2019-01-03T08:41:15.671Z,1027.52
2019-01-03T08:42:15.655Z,1027.59
2019-01-03T08:43:15.653Z,1027.60
2019-01-03T08:44:15.635Z,1027.59
2019-01-03T08:45:15.627Z,1027.64
2019-01-03T08:46:15.610Z,1027.62
2019-01-03T08:47:15.600Z,1027.55
2019-01-03T08:48:15.591Z,1027.59
2019-01-03T08:49:15.579Z,1027.54
2019-01-03T08:50:15.568Z,1027.53
2019-01-03T08:51:15.559Z,1027.57
2019-01-03T08:52:15.548Z,1027.61
2019-01-03T08:53:15.544Z,1027.54
2019-01-03T08:54:15.524Z,1027.57
2019-01-03T08:55:15.512Z,1027.65
2019-01-03T08:56:15.503Z,1027.69
2019-01-03T08:57:15.491Z,1027.73
2019-01-03T08:58:15.484Z,1027.64
2019-01-03T08:59:15.473Z,1027.58
2019-01-03T09:00:15.458Z,1027.60
2019-01-03T09:01:15.453Z,1027.63
2019-01-03T09:02:15.437Z,1027.71
2019-01-03T09:03:15.425Z,1027.69
2019-01-03T09:04:15.416Z,1027.72
2019-01-03T09:05:15.404Z,1027.71
2019-01-03T09:06:15.392Z,1027.63
2019-01-03T09:07:15.383Z,1027.67
2019-01-03T09:08:15.374Z,1027.67
2019-01-03T09:09:15.363Z,1027.65
2019-01-03T09:10:15.350Z,1027.62
2019-01-03T09:11:15.345Z,1027.69
2019-01-03T09:12:15.329Z,1027.75
2019-01-03T09:13:15.317Z,1027.79
2019-01-03T09:14:15.310Z,1027.76
2019-01-03T09:15:15.299Z,1027.77
2019-01-03T09:16:15.284Z,1027.79
2019-01-03T09:17:15.292Z,1027.65
2019-01-03T09:18:15.272Z,1027.66
2019-01-03T09:19:15.254Z,1027.74
2019-01-03T09:20:15.253Z,1027.72
2019-01-03T09:21:15.253Z,1027.68
2019-01-03T09:22:15.259Z,1027.59
2019-01-03T09:23:15.260Z,1027.60
2019-01-03T09:24:15.201Z,1027.68
2019-01-03T09:25:15.203Z,1027.76
2019-01-03T09:26:15.205Z,1027.72
2019-01-03T09:27:15.212Z,1027.66
2019-01-03T09:28:15.217Z,1027.69
2019-01-03T09:29:15.141Z,1027.63
2019-01-03T09:30:15.132Z,1027.75
2019-01-03T09:31:15.132Z,1027.85
2019-01-03T09:32:15.114Z,1027.79
2019-01-03T09:33:15.100Z,1027.80
2019-01-03T09:34:15.086Z,1027.92
2019-01-03T09:35:15.079Z,1027.98
2019-01-03T09:36:15.068Z,1028.00
2019-01-03T09:37:15.056Z,1027.95
2019-01-03T09:38:15.044Z,1028.02
2019-01-03T09:39:15.038Z,1027.93
2019-01-03T09:40:15.019Z,1027.96
2019-01-03T09:41:15.013Z,1027.97
2019-01-03T09:42:14.999Z,1027.95
2019-01-03T09:43:14.988Z,1027.96
2019-01-03T09:44:14.982Z,1027.97
2019-01-03T09:45:14.966Z,1027.89
2019-01-03T09:46:14.960Z,1027.89
2019-01-03T09:47:14.958Z,1027.89
2019-01-03T09:48:14.932Z,1027.91
2019-01-03T09:49:14.921Z,1027.93
2019-01-03T09:50:14.910Z,1027.88
2019-01-03T09:51:14.902Z,1027.94
2019-01-03T09:52:14.890Z,1028.04
2019-01-03T09:53:14.874Z,1028.07
2019-01-03T09:54:14.865Z,1028.00
2019-01-03T09:55:14.858Z,1028.03
2019-01-03T09:56:14.848Z,1028.04
2019-01-03T09:57:14.834Z,1027.97
2019-01-03T09:58:14.825Z,1027.98
2019-01-03T09:59:14.810Z,1027.93
2019-01-03T10:00:14.806Z,1027.94
2019-01-03T10:01:14.790Z,1027.99
2019-01-03T10:02:14.780Z,1027.99
2019-01-03T10:03:14.765Z,1028.06
2019-01-03T10:04:14.755Z,1028.10
2019-01-03T10:05:14.746Z,1028.05
2019-01-03T10:06:14.738Z,1028.07
2019-01-03T10:07:14.724Z,1028.04
2019-01-03T10:08:19.571Z,1028.16
2019-01-03T10:09:14.700Z,1028.11
2019-01-03T10:10:14.690Z,1028.11
2019-01-03T10:11:14.678Z,1028.10
2019-01-03T10:12:14.690Z,1028.06
2019-01-03T10:13:14.654Z,1028.01
2019-01-03T10:14:14.647Z,1028.07
2019-01-03T10:15:14.638Z,1028.01
2019-01-03T10:16:14.624Z,1028.02
2019-01-03T10:17:14.614Z,1027.97
2019-01-03T10:18:14.599Z,1027.95
2019-01-03T10:19:14.592Z,1027.98
2019-01-03T10:20:14.583Z,1027.98
2019-01-03T10:21:14.567Z,1027.96
2019-01-03T10:22:14.558Z,1028.00
2019-01-03T10:23:14.549Z,1027.91
2019-01-03T10:24:14.533Z,1027.92
2019-01-03T10:25:14.523Z,1027.85
2019-01-03T10:26:14.510Z,1027.81
2019-01-03T10:27:14.505Z,1027.88
2019-01-03T10:28:14.487Z,1027.85
2019-01-03T10:29:14.477Z,1027.84
2019-01-03T10:30:14.465Z,1027.80
2019-01-03T10:31:14.456Z,1027.84
2019-01-03T10:32:14.446Z,1027.87
2019-01-03T10:33:14.444Z,1028.00
2019-01-03T10:34:14.431Z,1027.96
2019-01-03T10:35:14.411Z,1028.08
2019-01-03T10:36:14.400Z,1028.10
2019-01-03T10:37:14.390Z,1028.11
2019-01-03T10:38:14.380Z,1028.10
2019-01-03T10:39:14.368Z,1028.15
2019-01-03T10:40:14.357Z,1028.18
2019-01-03T10:41:14.343Z,1028.18
2019-01-03T10:42:14.332Z,1028.11
2019-01-03T10:43:14.324Z,1028.07
2019-01-03T10:44:14.310Z,1028.08
2019-01-03T10:45:14.297Z,1028.00
2019-01-03T10:46:14.286Z,1028.04
2019-01-03T10:47:14.276Z,1028.01
2019-01-03T10:48:14.263Z,1028.05
2019-01-03T10:49:14.257Z,1028.06
2019-01-03T10:50:14.245Z,1028.04
2019-01-03T10:51:14.231Z,1028.01
2019-01-03T10:52:14.223Z,1028.00
2019-01-03T10:53:14.211Z,1028.01
2019-01-03T10:54:14.198Z,1028.02
2019-01-03T10:55:14.190Z,1027.99
2019-01-03T10:56:14.173Z,1027.95
2019-01-03T10:57:14.164Z,1027.97
2019-01-03T10:58:14.156Z,1027.98
2019-01-03T10:59:14.141Z,1027.96
2019-01-03T11:00:14.133Z,1028.03
2019-01-03T11:01:14.120Z,1028.05
2019-01-03T11:02:14.109Z,1027.98
2019-01-03T11:03:14.105Z,1027.92
2019-01-03T11:04:14.088Z,1027.85
2019-01-03T11:05:14.077Z,1027.78
2019-01-03T11:06:14.067Z,1027.79
2019-01-03T11:07:14.057Z,1027.68
2019-01-03T11:08:14.042Z,1027.75
2019-01-03T11:09:14.039Z,1027.74
2019-01-03T11:10:14.023Z,1027.68
2019-01-03T11:11:14.009Z,1027.66
2019-01-03T11:12:13.999Z,1027.65
2019-01-03T11:13:13.993Z,1027.70
2019-01-03T11:14:13.978Z,1027.69
2019-01-03T11:15:13.964Z,1027.68
2019-01-03T11:16:13.953Z,1027.64
2019-01-03T11:17:13.945Z,1027.67
2019-01-03T11:18:13.939Z,1027.68
2019-01-03T11:19:13.922Z,1027.61
2019-01-03T11:20:13.907Z,1027.66
2019-01-03T11:21:13.895Z,1027.71
2019-01-03T11:22:13.886Z,1027.69
2019-01-03T11:23:13.875Z,1027.69
2019-01-03T11:24:13.864Z,1027.69
2019-01-03T11:25:13.856Z,1027.72
2019-01-03T11:26:13.840Z,1027.68
2019-01-03T11:27:13.830Z,1027.71
2019-01-03T11:28:13.817Z,1027.72
2019-01-03T11:29:13.807Z,1027.73
2019-01-03T11:30:13.794Z,1027.69
2019-01-03T11:31:13.784Z,1027.71
2019-01-03T11:32:13.775Z,1027.69
2019-01-03T11:33:13.763Z,1027.62
2019-01-03T11:34:13.751Z,1027.69
2019-01-03T11:35:13.741Z,1027.68
2019-01-03T11:36:13.735Z,1027.67
2019-01-03T11:37:13.720Z,1027.73
2019-01-03T11:38:13.707Z,1027.77
2019-01-03T11:39:13.698Z,1027.79
2019-01-03T11:40:13.690Z,1027.72
2019-01-03T11:41:13.671Z,1027.75
2019-01-03T11:42:13.659Z,1027.79
2019-01-03T11:43:13.648Z,1027.80
2019-01-03T11:44:13.637Z,1027.73
2019-01-03T11:45:13.625Z,1027.82
2019-01-03T11:46:13.616Z,1027.77
2019-01-03T11:47:13.608Z,1027.75
2019-01-03T11:48:13.592Z,1027.73
2019-01-03T11:49:13.587Z,1027.74
2019-01-03T11:50:13.570Z,1027.74
2019-01-03T11:51:13.559Z,1027.73
2019-01-03T11:52:13.554Z,1027.76
2019-01-03T11:53:13.535Z,1027.73
2019-01-03T11:54:13.530Z,1027.67
2019-01-03T11:55:13.515Z,1027.77
2019-01-03T11:56:13.501Z,1027.83
2019-01-03T11:57:13.491Z,1027.72
2019-01-03T11:58:13.487Z,1027.78
2019-01-03T11:59:13.467Z,1027.72
2019-01-03T12:00:13.457Z,1027.76
2019-01-03T12:01:13.449Z,1027.79
2019-01-03T12:02:13.442Z,1027.87
2019-01-03T12:03:13.426Z,1027.83
2019-01-03T12:04:13.412Z,1027.81
2019-01-03T12:05:13.403Z,1027.80
2019-01-03T12:06:13.390Z,1027.81
2019-01-03T12:07:13.381Z,1027.83
2019-01-03T12:08:13.369Z,1027.84
2019-01-03T12:09:13.359Z,1027.67
2019-01-03T12:10:13.343Z,1027.76
2019-01-03T12:11:13.335Z,1027.74
2019-01-03T12:12:13.322Z,1027.77
2019-01-03T12:13:13.309Z,1027.68
2019-01-03T12:14:13.301Z,1027.65
2019-01-03T12:15:13.288Z,1027.66
2019-01-03T12:16:13.274Z,1027.68
2019-01-03T12:17:13.267Z,1027.75
2019-01-03T12:18:13.256Z,1027.68
2019-01-03T12:19:13.248Z,1027.73
2019-01-03T12:20:13.232Z,1027.75
2019-01-03T12:21:13.226Z,1027.72
2019-01-03T12:22:13.211Z,1027.69
2019-01-03T12:23:13.200Z,1027.65
2019-01-03T12:24:13.188Z,1027.70
2019-01-03T12:25:13.179Z,1027.69
2019-01-03T12:26:13.166Z,1027.72
2019-01-03T12:27:13.154Z,1027.71
2019-01-03T12:28:13.143Z,1027.67
2019-01-03T12:29:13.132Z,1027.64
2019-01-03T12:30:13.122Z,1027.62
2019-01-03T12:31:13.115Z,1027.65
2019-01-03T12:32:13.104Z,1027.67
2019-01-03T12:33:13.088Z,1027.70
2019-01-03T12:34:13.081Z,1027.70
2019-01-03T12:35:13.072Z,1027.64
2019-01-03T12:36:13.056Z,1027.58
2019-01-03T12:37:13.044Z,1027.62
2019-01-03T12:38:13.033Z,1027.66
2019-01-03T12:39:13.024Z,1027.60
2019-01-03T12:40:13.010Z,1027.64
2019-01-03T12:41:13.004Z,1027.55
2019-01-03T12:42:12.992Z,1027.54
2019-01-03T12:43:13.185Z,1027.58
2019-01-03T12:44:12.967Z,1027.64
2019-01-03T12:45:12.959Z,1027.56
2019-01-03T12:46:12.946Z,1027.57
2019-01-03T12:47:12.934Z,1027.54
2019-01-03T12:48:12.922Z,1027.54
2019-01-03T12:49:12.913Z,1027.55
2019-01-03T12:50:12.901Z,1027.51
2019-01-03T12:51:12.887Z,1027.50
2019-01-03T12:52:12.878Z,1027.52
2019-01-03T12:53:12.870Z,1027.57
2019-01-03T12:54:12.855Z,1027.58
2019-01-03T12:55:12.844Z,1027.53
2019-01-03T12:56:12.832Z,1027.56
2019-01-03T12:57:12.824Z,1027.60
2019-01-03T12:58:12.810Z,1027.59
2019-01-03T12:59:12.798Z,1027.60
2019-01-03T13:00:12.800Z,1027.61
2019-01-03T13:01:12.781Z,1027.65
2019-01-03T13:02:12.764Z,1027.66
2019-01-03T13:03:12.754Z,1027.57
2019-01-03T13:04:12.748Z,1027.61
2019-01-03T13:05:12.730Z,1027.58
2019-01-03T13:06:12.726Z,1027.57
2019-01-03T13:07:12.712Z,1027.55
2019-01-03T13:08:12.699Z,1027.58
2019-01-03T13:09:12.692Z,1027.59
2019-01-03T13:10:12.677Z,1027.71
2019-01-03T13:11:12.666Z,1027.62
2019-01-03T13:12:12.655Z,1027.71
2019-01-03T13:13:12.641Z,1027.66
2019-01-03T13:14:12.630Z,1027.71
2019-01-03T13:15:12.620Z,1027.74
2019-01-03T13:16:12.609Z,1027.74
2019-01-03T13:17:12.604Z,1027.74
2019-01-03T13:18:12.589Z,1027.78
2019-01-03T13:19:12.574Z,1027.79
2019-01-03T13:20:12.560Z,1027.78
2019-01-03T13:21:12.550Z,1027.84
2019-01-03T13:22:12.546Z,1027.83
2019-01-03T13:23:12.534Z,1027.82
2019-01-03T13:24:12.518Z,1027.84
2019-01-03T13:25:12.508Z,1027.79
2019-01-03T13:26:12.494Z,1027.82
2019-01-03T13:27:12.482Z,1027.85
2019-01-03T13:28:12.479Z,1027.83
2019-01-03T13:29:12.460Z,1027.86
2019-01-03T13:30:12.449Z,1027.90
2019-01-03T13:31:12.441Z,1027.90
2019-01-03T13:32:12.468Z,1027.86
2019-01-03T13:33:12.417Z,1027.88
2019-01-03T13:34:12.403Z,1027.92
2019-01-03T13:35:12.392Z,1027.89
2019-01-03T13:36:12.380Z,1027.90
2019-01-03T13:37:12.374Z,1027.92
2019-01-03T13:38:12.358Z,1027.96
2019-01-03T13:39:12.349Z,1027.91
2019-01-03T13:40:12.336Z,1027.93
2019-01-03T13:41:12.326Z,1028.00
2019-01-03T13:42:12.312Z,1027.98
2019-01-03T13:43:12.307Z,1028.02
2019-01-03T13:44:12.297Z,1027.92
2019-01-03T13:45:12.280Z,1027.93
2019-01-03T13:46:12.273Z,1028.03
2019-01-03T13:47:12.260Z,1027.95
2019-01-03T13:48:12.245Z,1028.03
2019-01-03T13:49:12.234Z,1027.98
2019-01-03T13:50:12.224Z,1027.99
2019-01-03T13:51:12.218Z,1028.03
2019-01-03T13:52:12.203Z,1028.04
2019-01-03T13:53:12.193Z,1028.08
2019-01-03T13:54:12.176Z,1028.06
2019-01-03T13:55:12.170Z,1028.04
2019-01-03T13:56:12.158Z,1028.10
2019-01-03T13:57:12.144Z,1028.13
2019-01-03T13:58:12.136Z,1028.09
2019-01-03T13:59:12.124Z,1028.09
2019-01-03T14:00:12.109Z,1028.13
2019-01-03T14:01:12.100Z,1028.09
2019-01-03T14:02:12.087Z,1028.10
2019-01-03T14:03:12.074Z,1028.08
2019-01-03T14:04:12.063Z,1028.08
2019-01-03T14:05:12.057Z,1028.10
2019-01-03T14:06:12.046Z,1028.11
2019-01-03T14:07:12.036Z,1028.17
2019-01-03T14:08:12.019Z,1028.14
2019-01-03T14:09:12.007Z,1028.13
2019-01-03T14:10:12.004Z,1028.16
2019-01-03T14:11:11.985Z,1028.19
2019-01-03T14:12:11.974Z,1028.18
2019-01-03T14:13:11.967Z,1028.10
2019-01-03T14:14:11.952Z,1028.16
2019-01-03T14:15:11.940Z,1028.19
2019-01-03T14:16:11.930Z,1028.10
2019-01-03T14:17:11.918Z,1028.11
2019-01-03T14:18:11.911Z,1028.11
2019-01-03T14:19:11.896Z,1028.12
2019-01-03T14:20:11.882Z,1028.11
2019-01-03T14:21:11.874Z,1028.13
2019-01-03T14:22:11.861Z,1028.09
2019-01-03T14:23:11.852Z,1028.13
2019-01-03T14:24:11.844Z,1028.12
2019-01-03T14:25:11.829Z,1028.19
2019-01-03T14:26:11.822Z,1028.14
2019-01-03T14:27:11.807Z,1028.18
2019-01-03T14:28:11.804Z,1028.16
2019-01-03T14:29:11.787Z,1028.18
2019-01-03T14:30:11.776Z,1028.18
2019-01-03T14:31:11.763Z,1028.26
2019-01-03T14:32:11.761Z,1028.27
2019-01-03T14:33:11.741Z,1028.22
2019-01-03T14:34:11.738Z,1028.28
2019-01-03T14:35:11.715Z,1028.35
2019-01-03T14:36:11.706Z,1028.37
2019-01-03T14:37:11.696Z,1028.36
2019-01-03T14:38:11.683Z,1028.34
2019-01-03T14:39:11.671Z,1028.32
2019-01-03T14:40:11.660Z,1028.29
2019-01-03T14:41:11.651Z,1028.31
2019-01-03T14:42:11.644Z,1028.26
2019-01-03T14:43:11.628Z,1028.35
2019-01-03T14:44:11.624Z,1028.37
2019-01-03T14:45:11.605Z,1028.38
2019-01-03T14:46:11.598Z,1028.35
2019-01-03T14:47:11.585Z,1028.37
2019-01-03T14:48:11.575Z,1028.36
2019-01-03T14:49:11.560Z,1028.34
2019-01-03T14:50:11.550Z,1028.40
2019-01-03T14:51:11.547Z,1028.38
2019-01-03T14:52:11.527Z,1028.41
2019-01-03T14:53:11.518Z,1028.46
2019-01-03T14:54:11.506Z,1028.43
2019-01-03T14:55:11.495Z,1028.47
2019-01-03T14:56:11.488Z,1028.52
2019-01-03T14:57:11.471Z,1028.47
2019-01-03T14:58:11.460Z,1028.47
2019-01-03T14:59:11.450Z,1028.51
2019-01-03T15:00:11.440Z,1028.50
2019-01-03T15:01:11.429Z,1028.48
2019-01-03T15:02:12.189Z,1028.52
2019-01-03T15:03:11.406Z,1028.49
2019-01-03T15:04:11.401Z,1028.51
2019-01-03T15:05:13.970Z,1028.53
2019-01-03T15:06:11.405Z,1028.50
2019-01-03T15:07:11.418Z,1028.56
2019-01-03T15:08:11.349Z,1028.51
2019-01-03T15:09:11.351Z,1028.54
2019-01-03T15:10:11.356Z,1028.50
2019-01-03T15:11:11.359Z,1028.54
2019-01-03T15:12:11.306Z,1028.55
2019-01-03T15:13:11.293Z,1028.51
2019-01-03T15:14:11.281Z,1028.53
2019-01-03T15:15:11.271Z,1028.52
2019-01-03T15:16:11.259Z,1028.51
2019-01-03T15:17:11.247Z,1028.53
2019-01-03T15:18:11.240Z,1028.58
2019-01-03T15:19:11.232Z,1028.57
2019-01-03T15:20:11.221Z,1028.51
2019-01-03T15:21:11.205Z,1028.60
2019-01-03T15:22:11.198Z,1028.53
2019-01-03T15:23:11.184Z,1028.57
2019-01-03T15:24:11.170Z,1028.61
2019-01-03T15:25:11.167Z,1028.59
2019-01-03T15:26:11.162Z,1028.56
2019-01-03T15:27:11.140Z,1028.61
2019-01-03T15:28:11.125Z,1028.68
2019-01-03T15:29:11.115Z,1028.63
2019-01-03T15:30:11.109Z,1028.60
2019-01-03T15:31:11.099Z,1028.64
2019-01-03T15:32:11.084Z,1028.62
2019-01-03T15:33:11.070Z,1028.71
2019-01-03T15:34:11.062Z,1028.70
2019-01-03T15:35:11.047Z,1028.68
2019-01-03T15:36:11.036Z,1028.74
2019-01-03T15:37:11.025Z,1028.67
2019-01-03T15:38:11.013Z,1028.76
2019-01-03T15:39:11.002Z,1028.74
2019-01-03T15:40:10.993Z,1028.76
2019-01-03T15:41:10.982Z,1028.72
2019-01-03T15:42:10.977Z,1028.78
2019-01-03T15:43:10.958Z,1028.73
2019-01-03T15:44:10.946Z,1028.77
2019-01-03T15:45:10.936Z,1028.79
2019-01-03T15:46:10.925Z,1028.78
2019-01-03T15:47:10.911Z,1028.83
2019-01-03T15:48:10.901Z,1028.82
2019-01-03T15:49:10.892Z,1028.82
2019-01-03T15:50:10.879Z,1028.84
2019-01-03T15:51:10.865Z,1028.85
2019-01-03T15:52:10.855Z,1028.82
2019-01-03T15:53:10.843Z,1028.89
2019-01-03T15:54:10.839Z,1028.91
2019-01-03T15:55:10.827Z,1028.90
2019-01-03T15:56:10.814Z,1028.94
2019-01-03T15:57:10.805Z,1028.92
2019-01-03T15:58:10.790Z,1028.94
2019-01-03T15:59:10.781Z,1028.97
2019-01-03T16:00:10.773Z,1028.97
2019-01-03T16:01:10.763Z,1028.96
2019-01-03T16:02:10.751Z,1029.03
2019-01-03T16:03:10.733Z,1029.03
2019-01-03T16:04:10.721Z,1029.05
2019-01-03T16:05:10.713Z,1029.11
2019-01-03T16:06:10.706Z,1029.12
2019-01-03T16:07:10.689Z,1029.07
2019-01-03T16:08:10.676Z,1029.11
2019-01-03T16:09:10.667Z,1029.12
2019-01-03T16:10:10.655Z,1029.07
2019-01-03T16:11:10.643Z,1029.15
2019-01-03T16:12:10.635Z,1029.11
2019-01-03T16:13:10.621Z,1029.13
2019-01-03T16:14:10.611Z,1029.17
2019-01-03T16:15:10.600Z,1029.16
2019-01-03T16:16:10.594Z,1029.17
2019-01-03T16:17:10.574Z,1029.21
2019-01-03T16:18:10.574Z,1029.23
2019-01-03T16:19:10.552Z,1029.25
2019-01-03T16:20:10.542Z,1029.27
2019-01-03T16:21:10.543Z,1029.25
2019-01-03T16:22:10.519Z,1029.23
2019-01-03T16:23:10.517Z,1029.28
2019-01-03T16:24:10.496Z,1029.30
2019-01-03T16:25:10.487Z,1029.31
2019-01-03T16:26:10.479Z,1029.30
2019-01-03T16:27:10.463Z,1029.32
2019-01-03T16:28:10.452Z,1029.28
2019-01-03T16:29:10.440Z,1029.32
2019-01-03T16:30:10.436Z,1029.28
2019-01-03T16:31:10.421Z,1029.29
2019-01-03T16:32:10.406Z,1029.37
2019-01-03T16:33:10.396Z,1029.28
2019-01-03T16:34:10.383Z,1029.31
2019-01-03T16:35:10.375Z,1029.36
2019-01-03T16:36:10.368Z,1029.34
2019-01-03T16:37:10.351Z,1029.36
2019-01-03T16:38:10.340Z,1029.34
2019-01-03T16:39:10.327Z,1029.34
2019-01-03T16:40:10.317Z,1029.37
2019-01-03T16:41:10.746Z,1029.38
2019-01-03T16:42:10.294Z,1029.33
2019-01-03T16:43:10.284Z,1029.38
2019-01-03T16:44:10.278Z,1029.36
2019-01-03T16:45:10.260Z,1029.39
2019-01-03T16:46:10.250Z,1029.38
2019-01-03T16:47:10.241Z,1029.34
2019-01-03T16:48:10.227Z,1029.34
2019-01-03T16:49:10.221Z,1029.32
2019-01-03T16:50:10.203Z,1029.33
2019-01-03T16:51:10.194Z,1029.36
2019-01-03T16:52:10.185Z,1029.37
2019-01-03T16:53:10.174Z,1029.32
2019-01-03T16:54:10.156Z,1029.35
2019-01-03T16:55:10.147Z,1029.34
2019-01-03T16:56:10.141Z,1029.37
2019-01-03T16:57:10.125Z,1029.31
2019-01-03T16:58:10.113Z,1029.26
2019-01-03T16:59:10.099Z,1029.25
2019-01-03T17:00:10.089Z,1029.32
2019-01-03T17:01:10.083Z,1029.33
2019-01-03T17:02:10.072Z,1029.27
2019-01-03T17:03:10.058Z,1029.26
2019-01-03T17:04:10.046Z,1029.24
2019-01-03T17:05:10.036Z,1029.25
2019-01-03T17:06:10.023Z,1029.26
2019-01-03T17:07:10.012Z,1029.24
2019-01-03T17:08:10.005Z,1029.24
2019-01-03T17:09:09.990Z,1029.15
2019-01-03T17:10:09.977Z,1029.25
2019-01-03T17:11:09.969Z,1029.19
2019-01-03T17:12:09.961Z,1029.14
2019-01-03T17:13:09.945Z,1029.12
2019-01-03T17:14:09.953Z,1029.15
2019-01-03T17:15:09.923Z,1029.11
2019-01-03T17:16:09.914Z,1029.12
2019-01-03T17:17:09.898Z,1029.11
2019-01-03T17:18:09.887Z,1029.08
2019-01-03T17:19:09.875Z,1029.09
2019-01-03T17:20:09.864Z,1029.06
2019-01-03T17:21:09.852Z,1029.06
2019-01-03T17:22:09.847Z,1029.07